Flight Track Log - Related Links

Times and Time Zones

All times are in EDT time to prevent confusion due to time zone crossing. See the ASH2615 flight status page for this flight to view local times or setup timezone preferences in your user account.

Time Position Orientation Groundspeed Altitude Reporting Facility
EDT Latitude Longitude Course Direction KTS MPH feet Rate Location/Type
Wed 09:49:05 AM 35.1908 -80.9356 180° South 155 178 1,600  Level Atlanta Center
Wed 09:49:48 AM 35.1553 -80.9319 175° South 181 208 2,700 1,765 Climbing Atlanta Center
Wed 09:50:30 AM 35.1050 -80.9261 175° South 265 305 4,100 2,824 Climbing Atlanta Center
Wed 09:51:30 AM 35.0317 -80.9111 170° South 271 312 7,500 3,150 Climbing Atlanta Center
Wed 09:52:30 AM 34.9522 -80.9042 176° South 301 346 10,400 2,400 Climbing Atlanta Center
Wed 09:53:30 AM 34.8667 -80.9047 180° South 314 361 12,300 1,642 Climbing Atlanta Center
Wed 09:54:00 AM 34.6918 -80.7396 180° South  Level Estimated
Wed 09:55:29 AM 34.6781 -80.8981 178° South 355 409 15,300  Level Jacksonville Center
Wed 09:56:29 AM 34.5717 -80.8906 177° South 378 435 16,000 350 Climbing Jacksonville Center
Wed 09:57:29 AM 34.4672 -80.8803 175° South 381 438 16,000  Level Jacksonville Center
Wed 09:58:29 AM 34.3564 -80.8653 174° South 392 451 16,000 -50 Level Jacksonville Center
Wed 09:59:29 AM 34.2350 -80.8431 171° South 401 461 15,900 900 Descending Jacksonville Center
Wed 10:00:29 AM 34.1261 -80.8231 171° South 401 461 17,800 1,850 Climbing Jacksonville Center
Wed 10:01:29 AM 34.0111 -80.8056 173° South 411 473 19,600 1,100 Climbing Jacksonville Center
Wed 10:02:29 AM 33.9044 -80.7856 171° South 423 487 20,000 -100 Climbing Jacksonville Center
Wed 10:03:29 AM 33.7872 -80.7661 172° South 428 493 19,400 -1,100 Descending Jacksonville Center
Wed 10:04:29 AM 33.6700 -80.7489 173° South 428 493 17,800 -1,700 Descending Jacksonville Center
Wed 10:05:29 AM 33.5528 -80.7292 172° South 428 493 16,000 -1,700 Descending Jacksonville Center
Wed 10:06:29 AM 33.4419 -80.7094 172° South 422 486 14,400 -1,950 Descending Jacksonville Center
Wed 10:07:29 AM 33.3353 -80.6922 172° South 405 466 12,100 -1,700 Descending Jacksonville Center
Wed 10:08:29 AM 33.2364 -80.6575 164° South 387 445 11,000 -850 Descending Jacksonville Center
Wed 10:09:29 AM 33.1969 -80.5567 115° Southeast 330 380 10,400 -1,050 Descending Jacksonville Center
Wed 10:10:29 AM 33.1681 -80.4631 110° East 302 348 8,900 -1,550 Descending Jacksonville Center
Wed 10:11:29 AM 33.1392 -80.3747 111° Southeast 290 334 7,300 -1,550 Descending Jacksonville Center
Wed 10:12:29 AM 33.1125 -80.2911 111° Southeast 284 327 5,800 -1,650 Descending Jacksonville Center
Wed 10:13:29 AM 33.0811 -80.1903 110° East 284 327 4,000 -1,650 Descending Jacksonville Center
Wed 10:14:29 AM 33.0544 -80.1119 112° Southeast 270 311 2,500 -1,200 Descending Jacksonville Center
Wed 10:15:29 AM 33.0278 -80.0358 113° Southeast 262 302 1,600 -900 Descending Jacksonville Center

Login

Don't have an account? Register now (free) for customized features, flight alerts, and more!